Grafenwohr Army Air Field ETIC

Flugplatz Daten

Name: Grafenwohr Army Air Field

Ident: ETIC

Lat: 49,69869995

Long: 11,94019985

Platzhöhe: 1363 ft

IataCode:

City:

Metar

2022/08/14 04:56
ETIC 140456Z AUTO 00000KT 9999 CLR 13/11 A2991 RMK AO2 SLP118 T01260110 $

Taf

2022/08/11 18:07
TAF ETIC 111800Z 1118/1224 07009KT 9999 FEW080 QNH3010INS
BECMG 1209/1210 08010G15KT 9999 FEW060 BKN080 QNH3005INS
TEMPO 1215/1218 8000 -SHRA VCTS BKN060CB
BECMG 1217/1218 07006KT 9999 FEW020 BKN035 QNH3004INS TX27/1213Z TN13/1205Z LAST NO
AMDS AFT 1118 NEXT 1602
Gewünschte Webcam nicht vorhanden? Dann fügen Sie eine hinzu. Sie wird dann so schnell wie möglich freigeschaltet
Url: Title: